Time;durP1;ratioP1;P1;durP2;ratioP2;P2;SDS_P1;SDS_P2;PMS_P1;PMS_P2;Temp;Humidity;BMP_temperature;BMP_pressure;BME280_temperature;BME280_humidity;BME280_pressure;Samples;Min_cycle;Max_cycle;Signal;HPM_P1;HPM_P2
2021/01/01 00:01:30;;;;;;;186.90;93.67;;;;;;;-3.51;87.27;97719.19;5012920;28;20057;-62
2021/01/01 00:03:56;;;;;;;201.60;101.90;;;;;;;-3.45;87.87;97719.34;5014445;28;20368;-63
2021/01/01 00:06:21;;;;;;;175.17;90.03;;;;;;;-3.49;87.40;97718.44;5012893;28;20044;-62
2021/01/01 00:08:47;;;;;;;168.57;91.97;;;;;;;-3.53;87.04;97718.31;5014692;28;20399;-63
2021/01/01 00:11:16;;;;;;;199.33;98.87;;;;;;;-3.52;87.77;97727.53;5012992;28;20522;-62
2021/01/01 00:13:42;;;;;;;185.77;94.47;;;;;;;-3.58;87.70;97727.41;5014192;28;20122;-62
2021/01/01 00:16:10;;;;;;;172.67;90.87;;;;;;;-3.58;87.50;97727.41;5012769;28;20477;-62
2021/01/01 00:18:35;;;;;;;168.63;86.83;;;;;;;-3.65;87.92;97728.94;4996594;28;20030;-62
2021/01/01 00:21:01;;;;;;;146.40;76.70;;;;;;;-3.61;87.34;97734.84;5009238;28;20037;-62
2021/01/01 00:23:26;;;;;;;141.67;70.87;;;;;;;-3.61;87.28;97734.84;5012528;28;20045;-62
2021/01/01 00:25:51;;;;;;;132.87;63.80;;;;;;;-3.66;87.38;97736.41;5012867;28;20104;-62
2021/01/01 00:28:17;;;;;;;128.63;65.13;;;;;;;-3.74;87.17;97732.09;5013855;28;20479;-62
2021/01/01 00:30:42;;;;;;;106.37;58.37;;;;;;;-3.77;87.50;97734.50;5012634;28;20041;-62
2021/01/01 00:33:07;;;;;;;72.27;34.17;;;;;;;-3.58;88.65;97739.91;5011895;28;20054;-62
2021/01/01 00:35:33;;;;;;;43.90;24.17;;;;;;;-3.44;88.38;97736.91;4994028;28;20042;-62
2021/01/01 00:37:58;;;;;;;46.73;24.80;;;;;;;-3.46;88.07;97737.66;4993258;28;20030;-61
2021/01/01 00:40:24;;;;;;;53.60;27.57;;;;;;;-3.52;87.73;97747.56;4992771;28;20371;-61
2021/01/01 00:42:49;;;;;;;53.57;29.10;;;;;;;-3.61;87.61;97742.38;4993149;28;20038;-61
2021/01/01 00:45:15;;;;;;;53.83;30.50;;;;;;;-3.68;87.63;97738.88;5009214;28;20026;-61
2021/01/01 00:47:45;;;;;;;50.57;28.83;;;;;;;-3.67;87.82;97749.72;5012931;28;20487;-61
2021/01/01 00:50:10;;;;;;;61.80;32.10;;;;;;;-3.72;88.32;97740.47;5012632;28;20045;-61
2021/01/01 00:52:37;;;;;;;55.97;31.20;;;;;;;-3.76;87.99;97746.22;5013417;28;20363;-61
2021/01/01 00:55:02;;;;;;;70.37;34.73;;;;;;;-3.81;87.92;97754.41;5012238;28;20446;-61
2021/01/01 00:57:28;;;;;;;71.73;37.77;;;;;;;-3.80;88.70;97743.59;5012931;28;20037;-61
2021/01/01 00:59:53;;;;;;;70.03;37.67;;;;;;;-3.78;87.89;97765.34;5005315;28;20026;-62
2021/01/01 01:02:19;;;;;;;80.40;39.27;;;;;;;-3.73;88.60;97751.28;4993355;28;20037;-61
2021/01/01 01:04:44;;;;;;;68.73;36.83;;;;;;;-3.66;88.59;97758.94;4992082;28;20042;-62
2021/01/01 01:07:09;;;;;;;91.13;42.93;;;;;;;-3.58;88.36;97749.94;4993989;28;20039;-62
2021/01/01 01:09:35;;;;;;;81.60;41.13;;;;;;;-3.51;89.01;97751.75;4992110;28;20255;-62
2021/01/01 01:12:00;;;;;;;89.17;46.57;;;;;;;-3.46;88.73;97752.69;4994087;28;20030;-62
2021/01/01 01:14:25;;;;;;;89.67;47.17;;;;;;;-3.35;88.92;97746.25;4992700;28;20396;-62
2021/01/01 01:16:51;;;;;;;95.07;51.20;;;;;;;-3.26;88.99;97753.97;5011895;28;20036;-62
2021/01/01 01:19:17;;;;;;;110.07;54.13;;;;;;;-3.15;88.85;97752.53;5012196;28;20026;-61
2021/01/01 01:21:42;;;;;;;120.37;60.23;;;;;;;-3.09;88.82;97756.81;5012617;28;20026;-61
2021/01/01 01:24:08;;;;;;;116.20;59.17;;;;;;;-3.04;89.14;97757.75;5012211;28;20022;-62
2021/01/01 01:26:33;;;;;;;131.53;66.80;;;;;;;-2.97;88.82;97752.06;5012085;28;20037;-62
2021/01/01 01:28:58;;;;;;;164.60;77.87;;;;;;;-2.93;88.58;97753.81;5011226;28;20098;-62
2021/01/01 01:31:24;;;;;;;150.37;76.37;;;;;;;-2.93;88.71;97754.63;4993024;28;20034;-62
2021/01/01 01:33:49;;;;;;;163.57;78.93;;;;;;;-2.86;89.05;97753.09;4992064;28;20046;-62
2021/01/01 01:36:15;;;;;;;193.93;91.17;;;;;;;-2.84;89.59;97754.81;4994961;28;20404;-62
2021/01/01 01:38:40;;;;;;;189.97;93.67;;;;;;;-2.82;89.72;97759.88;5011850;28;20044;-61
2021/01/01 01:41:05;;;;;;;213.20;101.87;;;;;;;-2.77;89.67;97754.13;5010837;28;20067;-61
2021/01/01 01:43:31;;;;;;;207.40;95.77;;;;;;;-2.74;89.53;97760.84;5011009;28;20490;-61
2021/01/01 01:45:57;;;;;;;237.47;105.97;;;;;;;-2.79;89.81;97768.28;5010065;28;20083;-62
2021/01/01 01:48:28;;;;;;;221.23;105.97;;;;;;;-2.73;89.65;97767.56;5009530;28;20025;-62
2021/01/01 01:50:54;;;;;;;235.30;114.80;;;;;;;-2.74;89.84;97767.53;5010460;28;20366;-62
2021/01/01 01:53:21;;;;;;;258.20;114.27;;;;;;;-2.69;90.02;97764.31;4993102;28;20038;-62
2021/01/01 01:55:48;;;;;;;267.13;119.93;;;;;;;-2.69;89.67;97758.44;4991051;28;20022;-62
2021/01/01 01:58:14;;;;;;;250.27;116.60;;;;;;;-2.69;89.95;97758.44;4992121;28;20053;-62
2021/01/01 02:00:59;;;;;;;225.37;101.13;;;;;;;-2.72;90.47;97763.41;4991499;28;20038;-62
2021/01/01 02:03:28;;;;;;;226.32;107.03;;;;;;;-2.63;90.26;97768.59;5006854;28;20054;-62
2021/01/01 02:05:55;;;;;;;212.73;95.93;;;;;;;-2.65;90.22;97765.19;5011718;28;20025;-62
2021/01/01 02:08:20;;;;;;;247.47;97.03;;;;;;;-2.68;90.17;97760.97;5010424;28;20105;-61
2021/01/01 02:10:47;;;;;;;179.87;88.53;;;;;;;-2.61;90.39;97757.75;5011617;28;20097;-61
2021/01/01 02:13:14;;;;;;;186.87;80.50;;;;;;;-2.68;89.74;97768.50;5011079;28;20091;-61
2021/01/01 02:15:39;;;;;;;224.43;80.90;;;;;;;-2.70;90.34;97762.59;5011952;28;20040;-60
2021/01/01 02:18:05;;;;;;;192.30;72.07;;;;;;;-2.73;89.97;97764.22;5010895;28;20022;-61
2021/01/01 02:20:30;;;;;;;174.97;72.27;;;;;;;-2.81;89.95;97759.06;5011810;28;20037;-61
2021/01/01 02:22:56;;;;;;;145.40;68.47;;;;;;;-2.77;89.79;97760.81;5003667;28;20030;-62
2021/01/01 02:25:21;;;;;;;177.57;73.37;;;;;;;-2.74;89.77;97757.50;4991219;28;20030;-61
2021/01/01 02:27:46;;;;;;;179.17;63.73;;;;;;;-2.99;89.16;97758.69;5060061;27;20090;-61
2021/01/01 02:30:13;;;;;;;192.47;67.33;;;;;;;-2.89;89.65;97761.44;5072651;28;20044;-61
2021/01/01 02:32:39;;;;;;;169.47;62.60;;;;;;;-2.94;89.86;97763.00;5072832;28;20481;-61
2021/01/01 02:35:05;;;;;;;122.63;58.67;;;;;;;-2.89;89.86;97766.44;5082753;28;20036;-61
2021/01/01 02:37:30;;;;;;;158.27;56.63;;;;;;;-2.91;89.48;97768.06;5092437;28;20024;-61
2021/01/01 02:39:55;;;;;;;158.47;49.90;;;;;;;-2.89;89.41;97765.59;5092942;28;20344;-61
2021/01/01 02:42:21;;;;;;;254.23;55.97;;;;;;;-3.09;89.37;97766.84;5073538;28;20469;-61
2021/01/01 02:44:47;;;;;;;113.30;47.27;;;;;;;-2.98;90.05;97778.78;5074169;28;20095;-61
2021/01/01 02:47:16;;;;;;;111.67;43.50;;;;;;;-2.86;89.93;97774.00;5073979;28;20020;-61
2021/01/01 02:49:43;;;;;;;134.80;41.97;;;;;;;-2.91;89.96;97780.59;5072277;28;20407;-61
2021/01/01 02:52:08;;;;;;;129.83;41.77;;;;;;;-2.85;90.10;97765.69;5071997;28;20103;-61
2021/01/01 02:54:34;;;;;;;119.10;39.27;;;;;;;-2.84;89.98;97769.84;5072806;28;20066;-62
2021/01/01 02:56:59;;;;;;;96.60;40.17;;;;;;;-2.76;90.24;97770.03;5072776;28;20162;-62
2021/01/01 02:59:24;;;;;;;160.63;46.03;;;;;;;-2.78;90.50;97775.00;5073139;28;20360;-61
2021/01/01 03:01:54;;;;;;;123.03;42.90;;;;;;;-2.70;90.83;97771.78;5072334;28;20025;-62
2021/01/01 03:04:19;;;;;;;119.87;43.10;;;;;;;-2.74;90.80;97775.06;5072711;28;20028;-62
2021/01/01 03:06:45;;;;;;;115.70;42.60;;;;;;;-2.77;90.32;97775.84;5071971;28;20027;-62
2021/01/01 03:09:10;;;;;;;85.77;41.03;;;;;;;-2.77;90.34;97784.22;5073904;28;20054;-62
2021/01/01 03:11:36;;;;;;;113.17;39.10;;;;;;;-2.74;89.75;97770.03;5073925;28;20028;-62
2021/01/01 03:14:01;;;;;;;93.80;38.87;;;;;;;-2.74;89.68;97773.41;5073489;28;20016;-62
2021/01/01 03:16:27;;;;;;;84.20;39.53;;;;;;;-2.70;89.91;97767.63;5073250;28;20025;-62
2021/01/01 03:18:52;;;;;;;98.27;41.60;;;;;;;-2.76;89.84;97765.00;5072840;28;20028;-62
2021/01/01 03:21:19;;;;;;;110.93;41.23;;;;;;;-2.69;90.02;97770.97;5073915;28;20111;-62
2021/01/01 03:23:45;;;;;;;84.20;37.20;;;;;;;-2.72;89.69;97760.91;5072295;28;20032;-62
2021/01/01 03:26:10;;;;;;;104.37;40.40;;;;;;;-2.78;90.09;97767.47;5072856;28;20025;-61
2021/01/01 03:28:36;;;;;;;79.60;37.07;;;;;;;-2.82;89.90;97770.75;5072657;28;20028;-62
2021/01/01 03:31:01;;;;;;;95.13;38.07;;;;;;;-2.72;89.98;97768.41;5074200;28;20407;-62
2021/01/01 03:33:27;;;;;;;108.30;39.27;;;;;;;-2.77;90.02;97764.16;5071552;28;20053;-62
2021/01/01 03:35:53;;;;;;;107.17;39.53;;;;;;;-2.76;89.81;97762.50;5072845;28;20033;-62
2021/01/01 03:38:18;;;;;;;107.73;40.70;;;;;;;-2.65;90.35;97761.03;5071707;28;20393;-62
2021/01/01 03:40:43;;;;;;;94.13;37.77;;;;;;;-2.64;89.59;97766.91;5073494;28;20024;-62
2021/01/01 03:43:09;;;;;;;99.40;36.90;;;;;;;-2.63;89.23;97773.63;5072259;28;20063;-62
2021/01/01 03:45:34;;;;;;;95.87;35.47;;;;;;;-2.68;88.72;97771.03;5073152;28;20103;-62
2021/01/01 03:48:00;;;;;;;114.00;37.60;;;;;;;-2.72;88.83;97776.78;5072830;28;20329;-61
2021/01/01 03:50:25;;;;;;;78.63;36.57;;;;;;;-2.73;89.38;97774.25;5072817;28;20032;-62
2021/01/01 03:52:50;;;;;;;79.53;36.60;;;;;;;-2.74;89.55;97770.03;5073045;28;20029;-62
2021/01/01 03:55:16;;;;;;;95.13;38.73;;;;;;;-2.68;89.70;97767.66;5072708;28;20108;-62
2021/01/01 03:57:41;;;;;;;100.10;39.07;;;;;;;-2.70;89.80;97767.63;5073173;28;20024;-62
2021/01/01 04:00:08;;;;;;;94.23;40.67;;;;;;;-2.67;89.44;97774.38;5072601;28;20116;-62
2021/01/01 04:02:33;;;;;;;90.27;34.47;;;;;;;-2.78;88.84;97779.16;5075666;28;20138;-62
2021/01/01 04:04:59;;;;;;;125.10;38.87;;;;;;;-2.96;88.97;97772.13;5076103;28;20107;-62
2021/01/01 04:07:24;;;;;;;163.80;44.03;;;;;;;-2.97;89.40;97770.44;5076916;28;20024;-62
2021/01/01 04:09:49;;;;;;;176.27;39.03;;;;;;;-3.00;88.43;97777.91;5074623;28;20056;-61
2021/01/01 04:12:15;;;;;;;85.40;36.17;;;;;;;-3.00;89.10;97780.41;5076136;28;20029;-63
2021/01/01 04:14:40;;;;;;;89.67;39.67;;;;;;;-2.96;89.31;97781.31;5076439;28;20025;-61
2021/01/01 04:17:06;;;;;;;111.53;39.87;;;;;;;-2.99;89.68;97779.59;5076679;28;20040;-61
2021/01/01 04:19:31;;;;;;;79.10;38.47;;;;;;;-2.97;89.49;97777.13;5075688;28;20361;-62
2021/01/01 04:21:57;;;;;;;130.13;44.43;;;;;;;-3.04;89.60;97773.63;5076641;28;20119;-62
2021/01/01 04:24:22;;;;;;;124.40;43.40;;;;;;;-2.98;90.02;97768.75;5075833;28;20039;-62
2021/01/01 04:26:47;;;;;;;98.77;40.43;;;;;;;-2.90;89.66;97771.41;5076596;28;20017;-61
2021/01/01 04:29:13;;;;;;;121.47;42.97;;;;;;;-2.95;89.54;97766.31;5075176;28;20033;-61
2021/01/01 04:31:39;;;;;;;118.00;44.30;;;;;;;-3.04;89.41;97760.25;5074381;28;20028;-62
2021/01/01 04:34:06;;;;;;;87.33;41.40;;;;;;;-2.89;89.58;97770.59;5076024;28;20059;-61
2021/01/01 04:36:32;;;;;;;106.53;44.10;;;;;;;-3.02;89.13;97772.03;5075874;28;20028;-62
2021/01/01 04:38:57;;;;;;;126.67;47.40;;;;;;;-3.02;88.87;97774.53;5076099;28;20028;-62
2021/01/01 04:41:23;;;;;;;105.13;45.63;;;;;;;-3.04;89.40;97788.69;5076087;28;20103;-62
2021/01/01 04:43:49;;;;;;;261.00;58.07;;;;;;;-3.10;89.48;97790.22;5075489;28;20024;-62
2021/01/01 04:46:15;;;;;;;154.47;46.73;;;;;;;-3.08;89.16;97791.09;5076206;28;20086;-62
2021/01/01 04:48:43;;;;;;;116.97;44.10;;;;;;;-3.10;89.27;97787.72;5073195;28;20445;-62
2021/01/01 04:51:08;;;;;;;258.80;52.97;;;;;;;-3.31;89.63;97793.13;5074965;28;20021;-62
2021/01/01 04:53:37;;;;;;;211.50;49.53;;;;;;;-3.39;90.15;97790.44;5074997;28;20020;-62
2021/01/01 04:56:03;;;;;;;143.60;46.70;;;;;;;-3.44;90.08;97793.69;5075322;28;20116;-62
2021/01/01 04:58:29;;;;;;;189.83;51.40;;;;;;;-3.35;90.28;97798.84;5075942;28;20052;-62
2021/01/01 05:00:55;;;;;;;269.73;56.83;;;;;;;-3.48;90.21;97800.25;5074934;28;20028;-62
2021/01/01 05:03:20;;;;;;;203.20;58.23;;;;;;;-3.47;90.74;97801.94;5075879;28;20094;-62
2021/01/01 05:05:47;;;;;;;236.73;62.90;;;;;;;-3.48;91.02;97806.94;5074828;28;20017;-62
2021/01/01 05:08:13;;;;;;;270.10;62.93;;;;;;;-3.35;91.10;97808.88;5075423;28;20025;-62
2021/01/01 05:10:38;;;;;;;140.13;59.10;;;;;;;-3.22;91.65;97799.16;5073826;28;20410;-62
2021/01/01 05:13:13;;;;;;;157.23;61.20;;;;;;;-3.07;91.61;97802.81;5074599;28;20365;-62
2021/01/01 05:15:39;;;;;;;142.17;55.47;;;;;;;-2.99;91.67;97802.16;5075143;28;20145;-62
2021/01/01 05:18:20;;;;;;;214.30;57.87;;;;;;;-2.98;91.09;97805.53;5073883;28;20025;-62
2021/01/01 05:20:47;;;;;;;276.17;71.33;;;;;;;-3.13;91.51;97811.03;5075409;28;20086;-62
2021/01/01 05:23:21;;;;;;;164.47;65.47;;;;;;;-3.05;91.30;97812.03;5073956;28;20035;-62
2021/01/01 05:25:48;;;;;;;236.20;68.43;;;;;;;-3.06;91.25;97822.91;5075540;28;20032;-62
2021/01/01 05:28:15;;;;;;;221.50;64.67;;;;;;;-3.08;91.15;97827.03;5074100;28;20024;-62
2021/01/01 05:30:41;;;;;;;155.27;60.27;;;;;;;-2.96;91.56;97819.75;5075257;28;20020;-62
2021/01/01 05:33:14;;;;;;;332.97;70.87;;;;;;;-3.07;90.82;97841.28;5073853;28;20045;-62
2021/01/01 05:35:39;;;;;;;339.80;73.00;;;;;;;-3.12;91.41;97841.97;5075264;28;20141;-62
2021/01/01 05:38:20;;;;;;;259.70;69.00;;;;;;;-3.01;91.13;97843.06;5074006;28;20136;-62
2021/01/01 05:40:48;;;;;;;229.53;60.57;;;;;;;-2.95;91.51;97835.66;5075470;28;20028;-62
2021/01/01 05:43:25;;;;;;;276.13;70.33;;;;;;;-2.96;91.71;97842.34;5073798;28;20028;-62
2021/01/01 05:45:51;;;;;;;221.43;65.23;;;;;;;-2.95;91.20;97818.09;5075412;28;20036;-62
2021/01/01 05:48:17;;;;;;;140.27;52.70;;;;;;;-2.86;91.15;97826.66;5073651;28;20107;-62
2021/01/01 05:50:43;;;;;;;146.60;54.77;;;;;;;-2.82;91.43;97830.94;5075091;28;20552;-62
2021/01/01 05:53:09;;;;;;;119.47;52.43;;;;;;;-2.73;91.34;97832.78;5073850;28;20099;-62
2021/01/01 05:55:35;;;;;;;130.63;50.33;;;;;;;-2.66;91.59;97829.56;5074774;28;20123;-62
2021/01/01 05:58:00;;;;;;;114.03;45.53;;;;;;;-2.58;91.79;97834.72;5074111;28;20111;-62
2021/01/01 06:00:26;;;;;;;103.57;42.67;;;;;;;-2.48;91.76;97846.66;5073657;28;20773;-62
2021/01/01 06:02:56;;;;;;;120.27;46.63;;;;;;;-2.38;91.52;97848.53;5074876;28;20043;-62
2021/01/01 06:05:27;;;;;;;91.60;41.10;;;;;;;-2.36;91.25;97841.84;5073382;28;20047;-62
2021/01/01 06:07:55;;;;;;;120.20;41.03;;;;;;;-2.35;91.62;97841.88;5075406;28;20059;-62
2021/01/01 06:10:22;;;;;;;95.70;42.97;;;;;;;-2.27;91.60;97848.72;5073156;28;20029;-62
2021/01/01 06:12:53;;;;;;;101.30;41.47;;;;;;;-2.23;91.58;97856.31;5075035;28;20020;-62
2021/01/01 06:15:21;;;;;;;136.60;40.93;;;;;;;-2.29;91.06;97850.34;5073939;28;20464;-62
2021/01/01 06:17:52;;;;;;;116.73;35.63;;;;;;;-2.25;90.98;97857.13;5074199;28;20035;-62
2021/01/01 06:20:26;;;;;;;84.83;31.03;;;;;;;-2.22;90.63;97872.25;5073056;28;20104;-62
2021/01/01 06:23:01;;;;;;;80.90;32.50;;;;;;;-2.17;90.67;97868.16;5073736;28;20029;-62
2021/01/01 06:25:28;;;;;;;;;;;;;;;-2.23;90.25;97861.34;5074435;28;20028;-62
2021/01/01 06:27:54;;;;;;;77.30;31.00;;;;;;;-2.27;91.01;97867.13;5073716;28;20016;-62
2021/01/01 06:30:20;;;;;;;66.40;29.90;;;;;;;-2.18;91.43;97867.31;5073816;28;20024;-62
2021/01/01 06:32:46;;;;;;;109.87;33.03;;;;;;;-2.17;91.35;97876.53;5073255;28;20465;-62
2021/01/01 06:35:15;;;;;;;74.77;29.10;;;;;;;-2.15;91.04;97876.53;5073911;28;20115;-63
2021/01/01 06:37:47;;;;;;;91.93;28.37;;;;;;;-2.13;90.60;97883.31;5073007;28;20031;-62
2021/01/01 06:40:21;;;;;;;70.27;24.57;;;;;;;-2.13;90.87;97883.31;5074099;28;20036;-60
2021/01/01 06:43:00;;;;;;;76.78;28.08;;;;;;;-2.12;90.86;97884.97;5072615;28;20020;-61
2021/01/01 06:45:41;;;;;;;65.10;27.83;;;;;;;-2.04;90.54;97883.47;5073256;28;20059;-61
2021/01/01 06:48:09;;;;;;;93.17;31.83;;;;;;;-2.11;90.16;97896.72;5072761;28;20020;-61
2021/01/01 06:50:37;;;;;;;75.50;30.97;;;;;;;-2.13;90.35;97898.38;5071494;28;20059;-61
2021/01/01 06:53:14;;;;;;;81.47;30.43;;;;;;;-2.18;90.69;97899.09;5072667;28;20073;-61
2021/01/01 06:55:41;;;;;;;88.07;30.93;;;;;;;-2.22;91.01;97904.88;5073040;28;20020;-61
2021/01/01 06:58:07;;;;;;;192.10;31.33;;;;;;;-2.33;89.69;97899.63;5072784;28;20351;-61
2021/01/01 07:00:45;;;;;;;67.63;26.13;;;;;;;-2.15;89.97;97900.00;5073605;28;20073;-61
2021/01/01 07:03:26;;;;;;;66.47;24.17;;;;;;;-2.13;90.27;97895.00;5072595;28;20357;-61
2021/01/01 07:06:11;;;;;;;76.63;23.90;;;;;;;-2.04;90.61;97893.53;5073831;28;20020;-61
2021/01/01 07:08:40;;;;;;;55.22;23.63;;;;;;;-2.03;90.56;97887.66;5071991;28;20035;-61
2021/01/01 07:11:25;;;;;;;89.80;27.13;;;;;;;-2.01;90.09;97885.19;5073913;28;20061;-61
2021/01/01 07:13:53;;;;;;;62.70;24.63;;;;;;;-2.05;90.32;97889.31;5058191;28;20036;-62
2021/01/01 07:16:23;;;;;;;67.67;25.53;;;;;;;-1.99;90.41;97893.56;5073758;28;20059;-61
2021/01/01 07:18:50;;;;;;;127.13;33.27;;;;;;;-2.16;90.17;97899.94;5072422;28;20029;-61
2021/01/01 07:21:16;;;;;;;112.03;37.23;;;;;;;-2.36;89.31;97894.56;5073856;28;20044;-62
2021/01/01 07:23:43;;;;;;;61.40;28.90;;;;;;;-2.37;90.20;97895.38;5072601;28;20025;-62
2021/01/01 07:26:09;;;;;;;85.80;29.50;;;;;;;-2.44;89.57;97888.53;5073646;28;20032;-61
2021/01/01 07:28:34;;;;;;;65.60;27.63;;;;;;;-2.32;89.83;97897.16;5072767;28;20017;-61
2021/01/01 07:31:00;;;;;;;104.23;31.73;;;;;;;-2.39;89.73;97902.88;5073564;28;20382;-61
2021/01/01 07:33:28;;;;;;;59.93;27.20;;;;;;;-2.26;90.11;97901.47;5072252;28;20053;-61
2021/01/01 07:35:58;;;;;;;91.30;27.50;;;;;;;-2.27;89.93;97901.41;5073615;28;20583;-61
2021/01/01 07:38:25;;;;;;;111.90;32.60;;;;;;;-2.45;89.99;97902.75;5076614;28;20028;-61
2021/01/01 07:40:51;;;;;;;122.90;34.10;;;;;;;-2.46;89.71;97907.75;5076469;28;20036;-62
2021/01/01 07:43:17;;;;;;;121.93;34.03;;;;;;;-2.52;90.04;97908.47;5075998;28;20047;-62
2021/01/01 07:45:43;;;;;;;76.23;31.33;;;;;;;-2.53;90.21;97904.25;5077930;28;20085;-62
2021/01/01 07:48:09;;;;;;;80.03;31.47;;;;;;;-2.41;90.15;97904.50;5076415;28;20071;-61
2021/01/01 07:50:35;;;;;;;123.93;34.97;;;;;;;-2.43;90.32;97923.72;5077641;28;20028;-61
2021/01/01 07:53:05;;;;;;;112.80;35.03;;;;;;;-2.47;90.33;97926.97;5076857;28;20035;-61
2021/01/01 07:55:32;;;;;;;78.97;30.87;;;;;;;-2.35;90.38;97929.72;5075407;28;20461;-61
2021/01/01 07:58:05;;;;;;;89.10;32.17;;;;;;;-2.24;90.58;97934.94;5076441;28;20078;-61
2021/01/01 08:00:32;;;;;;;85.57;32.00;;;;;;;-2.32;89.79;97936.47;5076783;28;20043;-61
2021/01/01 08:03:00;;;;;;;97.50;28.47;;;;;;;-2.33;90.15;97945.66;5076235;28;20111;-61
2021/01/01 08:05:26;;;;;;;100.00;29.47;;;;;;;-2.41;90.04;97942.13;5076640;28;20365;-62
2021/01/01 08:07:52;;;;;;;103.97;29.57;;;;;;;-2.35;89.93;97947.31;5076636;28;20019;-62
2021/01/01 08:10:31;;;;;;;73.17;28.57;;;;;;;-2.29;90.06;97955.78;5076241;28;20024;-62
2021/01/01 08:12:56;;;;;;;111.83;28.83;;;;;;;-2.37;89.77;97955.59;5075952;28;20024;-62
2021/01/01 08:15:32;;;;;;;72.57;27.27;;;;;;;-2.23;90.13;97946.69;5075002;28;20402;-63
2021/01/01 08:18:18;;;;;;;72.35;30.38;;;;;;;-2.09;90.04;97949.47;5076138;28;20024;-62
2021/01/01 08:20:46;;;;;;;128.33;31.70;;;;;;;-2.19;89.54;97942.56;5074180;28;20056;-62
2021/01/01 08:23:15;;;;;;;164.97;32.07;;;;;;;-2.45;89.41;97952.94;5076236;28;20043;-62
2021/01/01 08:25:41;;;;;;;113.03;30.40;;;;;;;-2.31;89.51;97945.69;5074774;28;20028;-62
2021/01/01 08:28:07;;;;;;;108.13;26.40;;;;;;;-2.41;89.30;97952.19;5075818;28;20028;-62
2021/01/01 08:30:36;;;;;;;84.97;25.47;;;;;;;-2.34;89.41;97943.97;5076115;28;20032;-62
2021/01/01 08:33:04;;;;;;;66.17;23.50;;;;;;;-2.29;88.77;97948.25;5075052;28;20090;-61
2021/01/01 08:35:30;;;;;;;58.00;26.33;;;;;;;-2.02;88.81;97949.63;5076433;28;20032;-61
2021/01/01 08:37:55;;;;;;;77.37;23.53;;;;;;;-1.99;88.44;97937.13;5074795;28;20488;-62
2021/01/01 08:40:22;;;;;;;97.33;27.97;;;;;;;-1.96;88.08;97942.22;5076040;28;20032;-61
2021/01/01 08:42:53;;;;;;;86.07;28.73;;;;;;;-2.07;88.79;97933.63;5073359;28;20450;-61
2021/01/01 08:45:19;;;;;;;63.70;25.57;;;;;;;-1.92;88.98;97938.09;5074545;28;20044;-61
2021/01/01 08:47:48;;;;;;;70.93;27.67;;;;;;;-1.78;88.76;97945.88;5074053;28;20021;-61
2021/01/01 08:50:27;;;;;;;76.27;27.53;;;;;;;-1.85;88.83;97949.94;5075632;28;20128;-61
2021/01/01 08:53:03;;;;;;;57.23;25.33;;;;;;;-1.83;88.30;97949.97;5075166;28;20035;-61
2021/01/01 08:55:30;;;;;;;67.33;25.70;;;;;;;-2.01;88.03;97938.75;5075775;28;20036;-61
2021/01/01 08:58:07;;;;;;;53.73;23.70;;;;;;;-1.80;87.91;97947.50;5075323;28;20108;-61
2021/01/01 09:00:34;;;;;;;56.90;26.17;;;;;;;-1.78;87.73;97948.41;5074016;28;20032;-61
2021/01/01 09:02:59;;;;;;;83.93;27.93;;;;;;;-1.88;88.11;97957.41;5075677;28;20029;-61
2021/01/01 09:05:29;;;;;;;75.47;27.73;;;;;;;-1.84;88.22;97956.66;5073546;28;20077;-61
2021/01/01 09:08:15;;;;;;;62.27;24.97;;;;;;;-1.71;88.44;97956.06;5076520;28;20028;-61
2021/01/01 09:10:45;;;;;;;56.80;25.63;;;;;;;-1.70;88.16;97959.44;5074722;28;20032;-62
2021/01/01 09:13:30;;;;;;;60.37;26.87;;;;;;;-1.56;88.94;97950.44;5075919;28;20047;-61
2021/01/01 09:16:03;;;;;;;60.10;28.73;;;;;;;-1.42;88.21;97949.88;5072871;28;20421;-61
2021/01/01 09:18:29;;;;;;;72.87;25.53;;;;;;;-1.75;87.57;97945.94;5074681;28;20055;-61
2021/01/01 09:21:16;;;;;;;58.70;24.73;;;;;;;-1.71;86.94;97957.72;5072690;28;20457;-62
2021/01/01 09:23:49;;;;;;;84.67;24.80;;;;;;;-1.96;87.03;97966.47;5074087;28;20020;-62
2021/01/01 09:26:24;;;;;;;62.73;23.63;;;;;;;-1.79;87.73;97970.16;5074316;28;20417;-62
2021/01/01 09:28:59;;;;;;;51.33;22.52;;;;;;;-1.59;87.25;97965.47;5073312;28;20024;-62
2021/01/01 09:31:24;;;;;;;64.47;23.27;;;;;;;-1.69;87.17;97971.16;5075524;28;20357;-62
2021/01/01 09:34:01;;;;;;;70.30;23.10;;;;;;;-1.72;87.40;97971.09;5073348;28;20033;-62
2021/01/01 09:36:27;;;;;;;53.60;21.53;;;;;;;-1.65;87.43;97970.38;5075225;28;20029;-62
2021/01/01 09:38:53;;;;;;;49.27;23.17;;;;;;;-1.54;87.70;97963.91;5074430;28;20035;-62
2021/01/01 09:41:18;;;;;;;48.93;21.50;;;;;;;-1.43;87.66;97973.31;5057582;28;20025;-62
2021/01/01 09:43:44;;;;;;;45.37;20.67;;;;;;;-1.27;87.62;97976.09;5073517;28;20112;-62
2021/01/01 09:46:10;;;;;;;51.10;22.30;;;;;;;-1.16;87.42;97969.56;5075431;28;20142;-62
2021/01/01 09:48:35;;;;;;;47.27;18.50;;;;;;;-1.14;87.33;97956.19;5074216;28;20426;-63
2021/01/01 09:51:01;;;;;;;40.30;16.93;;;;;;;-0.97;86.62;97954.78;5074318;28;20099;-62
2021/01/01 09:53:26;;;;;;;40.83;18.87;;;;;;;-0.96;86.08;97951.44;5074389;28;20024;-62
2021/01/01 09:55:51;;;;;;;31.73;15.80;;;;;;;-0.81;85.82;97952.50;5073355;28;20115;-62
2021/01/01 09:58:18;;;;;;;32.10;16.63;;;;;;;-0.71;85.09;97951.81;5074169;28;20033;-62
2021/01/01 10:00:44;;;;;;;34.30;15.83;;;;;;;-0.74;84.30;97960.16;5071874;28;20052;-62
2021/01/01 10:03:10;;;;;;;32.97;15.20;;;;;;;-0.64;84.52;97966.19;5074952;28;20138;-62
2021/01/01 10:05:35;;;;;;;46.27;17.73;;;;;;;-0.77;83.46;97980.25;5072808;28;20046;-62
2021/01/01 10:08:01;;;;;;;42.90;17.13;;;;;;;-1.09;84.08;97977.22;5073873;28;20074;-62
2021/01/01 10:10:27;;;;;;;53.20;17.90;;;;;;;-1.41;85.57;97975.88;5074407;28;20112;-61
2021/01/01 10:12:53;;;;;;;38.80;18.73;;;;;;;-1.15;86.51;97984.69;5073928;28;20043;-61
2021/01/01 10:15:18;;;;;;;31.20;15.73;;;;;;;-1.02;86.29;97981.53;5073967;28;20029;-62
2021/01/01 10:17:44;;;;;;;37.17;16.73;;;;;;;-0.88;85.73;97984.25;5073842;28;20111;-62
2021/01/01 10:20:10;;;;;;;36.47;17.20;;;;;;;-0.97;84.73;97982.44;5072666;28;20027;-62
2021/01/01 10:22:35;;;;;;;34.97;15.43;;;;;;;-0.76;84.60;97981.94;5073167;28;20331;-62
2021/01/01 10:25:03;;;;;;;36.17;16.07;;;;;;;-0.64;83.92;97973.75;5073738;28;20020;-62
2021/01/01 10:27:28;;;;;;;35.57;16.23;;;;;;;-0.59;83.57;97972.94;5073198;28;20025;-62
2021/01/01 10:29:53;;;;;;;30.63;15.90;;;;;;;-0.78;83.75;97985.25;5073439;28;20467;-61
2021/01/01 10:32:19;;;;;;;41.27;16.87;;;;;;;-0.89;83.90;97991.81;5072929;28;20028;-61
2021/01/01 10:34:44;;;;;;;29.17;15.83;;;;;;;-0.73;83.63;97988.69;5072648;28;20641;-62
2021/01/01 10:37:12;;;;;;;33.87;15.03;;;;;;;-0.64;83.32;97991.34;5074357;28;20037;-62
2021/01/01 10:39:39;;;;;;;31.60;15.67;;;;;;;-0.59;83.95;97987.22;5072653;28;20049;-62
2021/01/01 10:42:05;;;;;;;39.83;16.77;;;;;;;-0.53;83.77;97992.34;5074730;28;20035;-63
2021/01/01 10:44:31;;;;;;;34.83;17.23;;;;;;;-0.58;82.81;97987.25;5073243;28;20036;-62
2021/01/01 10:46:56;;;;;;;35.37;16.23;;;;;;;-0.58;83.13;97989.75;5069077;28;20345;-62
2021/01/01 10:49:23;;;;;;;35.13;15.40;;;;;;;-0.62;82.93;97980.47;5072602;28;20029;-62
2021/01/01 10:51:48;;;;;;;51.73;17.10;;;;;;;-0.84;83.12;97982.63;5073773;28;20028;-62
2021/01/01 10:54:14;;;;;;;34.20;15.30;;;;;;;-0.86;84.25;97990.19;5074079;28;20034;-62
2021/01/01 10:56:40;;;;;;;30.17;16.77;;;;;;;-0.69;84.13;97988.75;5073669;28;20116;-62
2021/01/01 10:59:05;;;;;;;54.57;19.23;;;;;;;-0.75;83.62;97997.88;5073629;28;20028;-62
2021/01/01 11:01:30;;;;;;;34.37;16.33;;;;;;;-0.76;84.17;97984.44;5071766;28;20024;-62
2021/01/01 11:03:56;;;;;;;33.53;15.97;;;;;;;-0.70;84.41;97984.56;5072654;28;20056;-61
2021/01/01 11:06:21;;;;;;;49.03;21.03;;;;;;;-0.77;84.48;97981.94;5071933;28;20055;-61
2021/01/01 11:08:47;;;;;;;36.47;18.70;;;;;;;-0.75;84.66;97976.09;5072797;28;20028;-62
2021/01/01 11:11:19;;;;;;;37.33;18.20;;;;;;;-0.58;84.88;97972.13;5071656;28;20043;-62
2021/01/01 11:13:49;;;;;;;33.60;16.33;;;;;;;-0.70;84.66;97968.59;5073396;28;20028;-63
2021/01/01 12:25:03;;;;;;;52.20;18.60;;;;;;;-0.72;85.32;97947.63;4997012;28;20022;-63